createdAt,value
2023-01-15T00:00:10.339Z,10.40
2023-01-15T00:02:40.098Z,10.40
2023-01-15T00:05:09.038Z,10.40
2023-01-15T00:07:37.268Z,10.50
2023-01-15T00:10:06.262Z,10.50
2023-01-15T00:12:34.522Z,10.50
2023-01-15T00:15:02.733Z,10.50
2023-01-15T00:17:31.101Z,10.50
2023-01-15T00:20:00.934Z,10.60
2023-01-15T00:22:30.710Z,10.60
2023-01-15T00:25:16.672Z,10.60
2023-01-15T00:27:46.019Z,10.60
2023-01-15T00:30:19.054Z,10.70
2023-01-15T00:32:47.489Z,10.70
2023-01-15T00:35:21.340Z,10.70
2023-01-15T00:37:51.393Z,10.70
2023-01-15T00:40:22.399Z,10.70
2023-01-15T00:42:54.048Z,10.80
2023-01-15T00:45:23.677Z,10.80
2023-01-15T00:47:52.365Z,10.80
2023-01-15T00:50:23.565Z,10.80
2023-01-15T00:52:51.837Z,10.80
2023-01-15T00:55:24.753Z,10.80
2023-01-15T00:57:53.412Z,10.80
2023-01-15T01:00:22.459Z,10.80
2023-01-15T01:02:50.750Z,10.80
2023-01-15T01:05:19.643Z,10.80
2023-01-15T01:07:50.786Z,10.80
2023-01-15T01:10:19.332Z,10.80
2023-01-15T01:12:51.760Z,10.80
2023-01-15T01:15:21.489Z,10.80
2023-01-15T01:17:50.279Z,10.80
2023-01-15T01:20:24.695Z,10.80
2023-01-15T01:22:54.551Z,10.80
2023-01-15T01:25:23.580Z,10.80
2023-01-15T01:27:51.868Z,10.80
2023-01-15T01:30:20.884Z,10.80
2023-01-15T01:32:49.267Z,10.80
2023-01-15T01:35:18.723Z,11.00
2023-01-15T01:37:51.264Z,10.70
2023-01-15T01:40:21.610Z,10.80
2023-01-15T01:42:50.945Z,10.70
2023-01-15T01:45:25.707Z,10.80
2023-01-15T01:47:57.468Z,10.70
2023-01-15T01:50:27.838Z,10.70
2023-01-15T01:53:03.450Z,10.70
2023-01-15T01:55:35.892Z,10.70
2023-01-15T01:58:07.348Z,10.70
2023-01-15T02:00:39.578Z,10.70
2023-01-15T02:03:10.885Z,10.70
2023-01-15T02:05:41.326Z,10.70
2023-01-15T02:08:09.615Z,10.70
2023-01-15T02:10:39.171Z,10.70
2023-01-15T02:13:12.094Z,10.70
2023-01-15T02:15:43.984Z,10.70
2023-01-15T02:18:21.825Z,10.70
2023-01-15T02:20:55.448Z,10.70
2023-01-15T02:23:57.001Z,10.70
2023-01-15T02:26:51.980Z,10.80
2023-01-15T02:29:28.396Z,10.70
2023-01-15T02:31:57.258Z,10.70
2023-01-15T02:34:29.892Z,10.70
2023-01-15T02:37:02.952Z,10.70
2023-01-15T02:39:32.593Z,10.70
2023-01-15T02:42:05.012Z,10.70
2023-01-15T02:44:41.482Z,10.70
2023-01-15T02:47:14.178Z,10.70
2023-01-15T02:49:44.054Z,10.70
2023-01-15T02:52:20.040Z,10.70
2023-01-15T02:54:52.289Z,10.70
2023-01-15T02:57:23.160Z,10.70
2023-01-15T02:59:59.605Z,10.70
2023-01-15T03:02:35.724Z,10.70
2023-01-15T03:05:09.224Z,10.70
2023-01-15T03:07:42.728Z,10.70
2023-01-15T03:10:13.446Z,10.70
2023-01-15T03:13:08.491Z,10.70
2023-01-15T03:16:09.069Z,10.70
2023-01-15T03:18:43.998Z,10.70
2023-01-15T03:21:17.715Z,10.70
2023-01-15T03:23:51.974Z,10.70
2023-01-15T03:26:20.479Z,10.70
2023-01-15T03:28:51.288Z,10.70
2023-01-15T03:31:19.479Z,10.70
2023-01-15T03:33:48.043Z,10.70
2023-01-15T03:36:20.276Z,10.70
2023-01-15T03:38:51.693Z,10.60
2023-01-15T03:41:51.040Z,10.60
2023-01-15T03:44:28.342Z,10.60
2023-01-15T03:47:05.842Z,10.80
2023-01-15T03:49:45.400Z,10.70
2023-01-15T03:52:26.912Z,10.70
2023-01-15T03:55:05.523Z,10.70
2023-01-15T03:57:39.765Z,10.70
2023-01-15T04:00:17.184Z,10.60
2023-01-15T04:02:51.209Z,10.60
2023-01-15T04:05:22.607Z,10.60
2023-01-15T04:07:52.722Z,10.60
2023-01-15T04:10:21.818Z,10.60
2023-01-15T04:12:51.327Z,10.60
2023-01-15T04:15:22.751Z,10.70
2023-01-15T04:17:51.978Z,10.60
2023-01-15T04:20:21.330Z,10.60
2023-01-15T04:22:50.701Z,10.60
2023-01-15T04:25:20.159Z,10.60
2023-01-15T04:27:50.547Z,10.60
2023-01-15T04:30:19.722Z,10.60
2023-01-15T04:32:51.259Z,10.60
2023-01-15T04:35:21.524Z,10.60
2023-01-15T04:37:49.907Z,10.60
2023-01-15T04:40:33.012Z,10.60
2023-01-15T04:43:21.852Z,10.60
2023-01-15T04:45:50.270Z,10.50
2023-01-15T04:48:20.056Z,10.60
2023-01-15T04:50:49.412Z,10.50
2023-01-15T04:53:18.565Z,10.50
2023-01-15T04:55:46.740Z,10.50
2023-01-15T04:58:15.128Z,10.50
2023-01-15T05:00:43.981Z,10.50
2023-01-15T05:03:13.483Z,10.50
2023-01-15T05:05:43.110Z,10.50
2023-01-15T05:08:11.520Z,10.50
2023-01-15T05:10:41.287Z,10.50
2023-01-15T05:13:09.876Z,10.50
2023-01-15T05:15:38.612Z,10.50
2023-01-15T05:18:07.527Z,10.50
2023-01-15T05:20:40.203Z,10.50
2023-01-15T05:23:11.456Z,10.50
2023-01-15T05:25:39.897Z,10.50
2023-01-15T05:28:08.313Z,10.50
2023-01-15T05:30:41.230Z,10.40
2023-01-15T05:33:09.448Z,10.40
2023-01-15T05:35:38.481Z,10.40
2023-01-15T05:38:07.170Z,10.30
2023-01-15T05:40:40.393Z,10.40
2023-01-15T05:43:10.409Z,10.30
2023-01-15T05:45:39.462Z,10.40
2023-01-15T05:48:08.601Z,10.30
2023-01-15T05:50:38.034Z,10.40
2023-01-15T05:53:07.137Z,10.40
2023-01-15T05:55:38.821Z,10.40
2023-01-15T05:58:07.424Z,10.40
2023-01-15T06:00:35.985Z,10.40
2023-01-15T06:03:04.960Z,10.40
2023-01-15T06:05:34.539Z,10.40
2023-01-15T06:08:02.943Z,10.30
2023-01-15T06:10:39.279Z,10.40
2023-01-15T06:13:13.587Z,10.30
2023-01-15T06:15:43.667Z,10.30
2023-01-15T06:18:12.783Z,10.30
2023-01-15T06:20:42.735Z,10.30
2023-01-15T06:23:11.916Z,10.30
2023-01-15T06:25:40.810Z,10.30
2023-01-15T06:28:12.168Z,10.30
2023-01-15T06:30:41.821Z,10.30
2023-01-15T06:33:11.428Z,10.30
2023-01-15T06:35:40.792Z,10.30
2023-01-15T06:38:11.307Z,10.30
2023-01-15T06:40:41.229Z,10.30
2023-01-15T06:43:30.362Z,10.30
2023-01-15T06:46:21.390Z,10.30
2023-01-15T06:48:53.318Z,10.30
2023-01-15T06:51:22.129Z,10.30
2023-01-15T06:53:50.674Z,10.30
2023-01-15T06:56:19.608Z,10.30
2023-01-15T06:58:49.182Z,10.30
2023-01-15T07:01:17.516Z,10.30
2023-01-15T07:03:45.889Z,10.30
2023-01-15T07:06:14.775Z,10.20
2023-01-15T07:08:43.023Z,10.20
2023-01-15T07:11:12.470Z,10.20
2023-01-15T07:13:41.087Z,10.20
2023-01-15T07:16:27.011Z,10.20
2023-01-15T07:18:56.390Z,10.20
2023-01-15T07:21:25.037Z,10.20
2023-01-15T07:23:53.500Z,10.20
2023-01-15T07:26:21.960Z,10.20
2023-01-15T07:28:50.125Z,10.20
2023-01-15T07:31:21.041Z,10.20
2023-01-15T07:33:50.096Z,10.20
2023-01-15T07:36:18.518Z,10.20
2023-01-15T07:38:46.798Z,10.20
2023-01-15T07:41:33.119Z,10.20
2023-01-15T07:44:18.914Z,10.20
2023-01-15T07:47:06.131Z,10.20
2023-01-15T07:49:46.560Z,10.20
2023-01-15T07:52:15.809Z,10.20
2023-01-15T07:54:44.569Z,10.20
2023-01-15T07:57:15.023Z,10.10
2023-01-15T07:59:43.550Z,10.20
2023-01-15T08:02:13.575Z,10.10
2023-01-15T08:04:41.957Z,10.10
2023-01-15T08:07:10.926Z,10.10
2023-01-15T08:09:39.244Z,10.10
2023-01-15T08:12:25.323Z,10.10
2023-01-15T08:15:11.638Z,10.00
2023-01-15T08:17:42.772Z,10.00
2023-01-15T08:20:14.409Z,10.00
2023-01-15T08:22:44.151Z,10.00
2023-01-15T08:25:15.967Z,10.00
2023-01-15T08:27:44.881Z,10.00
2023-01-15T08:30:17.024Z,10.00
2023-01-15T08:32:47.104Z,10.00
2023-01-15T08:35:17.028Z,9.90
2023-01-15T08:37:45.715Z,9.90
2023-01-15T08:40:15.489Z,9.90
2023-01-15T08:42:44.371Z,9.90
2023-01-15T08:45:14.494Z,9.90
2023-01-15T08:47:43.566Z,9.80
2023-01-15T08:50:14.976Z,9.80
2023-01-15T08:52:44.147Z,9.80
2023-01-15T08:55:13.859Z,9.80
2023-01-15T08:57:42.141Z,9.80
2023-01-15T09:00:13.142Z,9.80
2023-01-15T09:02:41.875Z,9.70
2023-01-15T09:05:10.740Z,9.80
2023-01-15T09:07:40.964Z,9.70
2023-01-15T09:10:10.153Z,9.70
2023-01-15T09:12:38.554Z,9.70
2023-01-15T09:15:08.369Z,9.80
2023-01-15T09:17:40.597Z,9.70
2023-01-15T09:20:11.948Z,9.70
2023-01-15T09:22:41.797Z,9.70
2023-01-15T09:25:11.026Z,9.80
2023-01-15T09:27:40.005Z,9.70
2023-01-15T09:30:09.874Z,9.80
2023-01-15T09:32:38.252Z,9.70
2023-01-15T09:35:07.174Z,9.70
2023-01-15T09:37:35.431Z,9.70
2023-01-15T09:40:07.386Z,9.70
2023-01-15T09:42:43.862Z,9.70
2023-01-15T09:45:22.839Z,9.70
2023-01-15T09:48:13.021Z,9.70
2023-01-15T09:50:53.769Z,9.70
2023-01-15T09:53:48.632Z,9.70
2023-01-15T09:56:23.677Z,9.70
2023-01-15T09:58:53.554Z,9.70
2023-01-15T10:01:27.579Z,9.70
2023-01-15T10:04:01.992Z,9.70
2023-01-15T10:06:34.226Z,9.70
2023-01-15T10:09:07.993Z,9.70
2023-01-15T10:11:59.427Z,9.70
2023-01-15T10:14:42.041Z,9.70
2023-01-15T10:17:22.108Z,9.70
2023-01-15T10:19:50.666Z,9.70
2023-01-15T10:22:30.797Z,9.70
2023-01-15T10:24:59.588Z,9.70
2023-01-15T10:27:33.481Z,9.70
2023-01-15T10:30:07.534Z,9.70
2023-01-15T10:33:01.080Z,9.70
2023-01-15T10:35:37.609Z,9.70
2023-01-15T10:38:15.577Z,9.70
2023-01-15T10:41:16.183Z,9.70
2023-01-15T10:43:52.271Z,9.70
2023-01-15T10:46:25.274Z,9.70
2023-01-15T10:48:58.278Z,9.70
2023-01-15T10:51:31.587Z,9.70
2023-01-15T10:54:06.330Z,9.70
2023-01-15T10:56:38.886Z,9.70
2023-01-15T10:59:16.495Z,9.70
2023-01-15T11:01:45.070Z,9.70
2023-01-15T11:04:14.402Z,9.70
2023-01-15T11:06:42.922Z,9.70
2023-01-15T11:09:23.521Z,9.70
2023-01-15T11:12:12.373Z,9.80
2023-01-15T11:15:01.539Z,9.80
2023-01-15T11:17:50.500Z,9.80
2023-01-15T11:20:28.653Z,9.80
2023-01-15T11:22:58.164Z,9.70
2023-01-15T11:25:29.704Z,9.70
2023-01-15T11:27:59.472Z,9.70
2023-01-15T11:30:32.012Z,9.70
2023-01-15T11:33:04.252Z,9.80
2023-01-15T11:35:35.389Z,9.70
2023-01-15T11:38:09.005Z,9.70
2023-01-15T11:40:37.602Z,9.80
2023-01-15T11:43:37.126Z,9.80
2023-01-15T11:46:24.540Z,9.80
2023-01-15T11:49:10.775Z,9.80
2023-01-15T11:51:43.625Z,9.80
2023-01-15T11:54:16.366Z,9.80
2023-01-15T11:56:46.951Z,9.80
2023-01-15T11:59:20.855Z,9.80
2023-01-15T12:01:59.682Z,9.80
2023-01-15T12:04:34.171Z,9.80
2023-01-15T12:07:03.278Z,9.80
2023-01-15T12:09:48.953Z,9.80
2023-01-15T12:12:27.319Z,9.80
2023-01-15T12:15:09.977Z,9.90
2023-01-15T12:18:12.536Z,9.80
2023-01-15T12:20:55.715Z,9.80
2023-01-15T12:24:00.159Z,9.80
2023-01-15T12:26:31.868Z,9.80
2023-01-15T12:29:07.635Z,9.80
2023-01-15T12:31:41.310Z,9.80
2023-01-15T12:34:18.978Z,9.80
2023-01-15T12:36:52.147Z,9.80
2023-01-15T12:39:25.703Z,9.80
2023-01-15T12:42:15.953Z,9.80
2023-01-15T12:45:09.105Z,9.80
2023-01-15T12:47:43.918Z,9.80
2023-01-15T12:50:36.573Z,9.80
2023-01-15T12:53:11.372Z,9.80
2023-01-15T12:55:45.103Z,9.80
2023-01-15T12:58:22.159Z,9.90
2023-01-15T13:00:51.850Z,9.90
2023-01-15T13:03:27.547Z,9.90
2023-01-15T13:06:00.343Z,9.90
2023-01-15T13:08:34.168Z,9.90
2023-01-15T13:11:03.271Z,9.90
2023-01-15T13:13:34.208Z,9.90
2023-01-15T13:16:21.032Z,9.90
2023-01-15T13:19:01.127Z,9.90
2023-01-15T13:21:33.868Z,9.80
2023-01-15T13:24:20.526Z,9.80
2023-01-15T13:27:05.410Z,9.80
2023-01-15T13:29:45.152Z,9.80
2023-01-15T13:32:19.539Z,9.80
2023-01-15T13:34:51.491Z,9.90
2023-01-15T13:37:27.562Z,9.90
2023-01-15T13:40:01.799Z,9.90
2023-01-15T13:42:33.261Z,9.80
2023-01-15T13:45:28.245Z,9.80
2023-01-15T13:48:03.231Z,9.80
2023-01-15T13:50:34.744Z,9.80
2023-01-15T13:53:09.279Z,9.80
2023-01-15T13:55:40.953Z,9.80
2023-01-15T13:58:20.849Z,9.80
2023-01-15T14:00:49.425Z,9.80
2023-01-15T14:03:28.491Z,9.80
2023-01-15T14:05:58.932Z,9.80
2023-01-15T14:08:37.543Z,9.80
2023-01-15T14:11:06.568Z,9.80
2023-01-15T14:14:03.262Z,9.80
2023-01-15T14:16:54.771Z,9.80
2023-01-15T14:19:39.996Z,9.80
2023-01-15T14:22:22.086Z,9.80
2023-01-15T14:25:05.572Z,9.80
2023-01-15T14:27:50.957Z,9.80
2023-01-15T14:30:36.388Z,9.80
2023-01-15T14:33:20.405Z,9.90
2023-01-15T14:35:50.099Z,9.90
2023-01-15T14:38:20.338Z,9.90
2023-01-15T14:41:01.004Z,9.90
2023-01-15T14:43:33.505Z,10.20
2023-01-15T14:46:15.325Z,9.90
2023-01-15T14:48:43.900Z,9.90
2023-01-15T14:51:15.759Z,9.90
2023-01-15T14:53:46.320Z,9.90
2023-01-15T14:56:22.393Z,9.90
2023-01-15T14:58:55.566Z,9.90
2023-01-15T15:01:43.276Z,9.80
2023-01-15T15:04:23.678Z,9.90
2023-01-15T15:06:56.144Z,9.80
2023-01-15T15:09:32.349Z,9.80
2023-01-15T15:12:21.951Z,9.90
2023-01-15T15:15:00.063Z,9.80
2023-01-15T15:17:36.799Z,9.80
2023-01-15T15:20:21.838Z,9.80
2023-01-15T15:22:56.082Z,9.80
2023-01-15T15:25:28.982Z,9.80
2023-01-15T15:28:07.415Z,9.80
2023-01-15T15:30:38.507Z,9.80
2023-01-15T15:33:07.757Z,9.80
2023-01-15T15:35:40.442Z,9.80
2023-01-15T15:38:08.808Z,9.80
2023-01-15T15:40:38.470Z,9.70
2023-01-15T15:43:34.011Z,9.80
2023-01-15T15:46:35.026Z,9.80
2023-01-15T15:49:06.011Z,9.80
2023-01-15T15:51:36.199Z,9.70
2023-01-15T15:54:15.408Z,9.70
2023-01-15T15:56:54.260Z,9.70
2023-01-15T15:59:32.297Z,9.70
2023-01-15T16:02:09.787Z,9.70
2023-01-15T16:04:38.763Z,9.70
2023-01-15T16:07:15.015Z,9.70
2023-01-15T16:09:50.049Z,9.70
2023-01-15T16:12:19.636Z,9.60
2023-01-15T16:14:50.034Z,9.60
2023-01-15T16:17:19.576Z,9.60
2023-01-15T16:19:48.675Z,9.70
2023-01-15T16:22:19.905Z,9.70
2023-01-15T16:24:56.466Z,9.70
2023-01-15T16:27:29.514Z,9.70
2023-01-15T16:29:59.417Z,9.70
2023-01-15T16:32:31.367Z,9.70
2023-01-15T16:35:05.592Z,9.70
2023-01-15T16:37:36.062Z,9.70
2023-01-15T16:40:06.659Z,9.70
2023-01-15T16:42:37.276Z,9.70
2023-01-15T16:45:20.088Z,9.70
2023-01-15T16:48:03.051Z,9.70
2023-01-15T16:50:34.048Z,9.70
2023-01-15T16:53:03.466Z,9.70
2023-01-15T16:55:46.971Z,9.70
2023-01-15T16:58:21.447Z,9.70
2023-01-15T17:00:55.975Z,9.70
2023-01-15T17:03:27.476Z,9.70
2023-01-15T17:05:57.458Z,9.70
2023-01-15T17:08:33.168Z,9.70
2023-01-15T17:11:03.129Z,9.70
2023-01-15T17:13:35.527Z,9.70
2023-01-15T17:16:08.300Z,9.70
2023-01-15T17:18:36.797Z,9.70
2023-01-15T17:21:06.127Z,9.70
2023-01-15T17:23:37.090Z,9.70
2023-01-15T17:26:06.883Z,9.70
2023-01-15T17:28:35.401Z,9.70
2023-01-15T17:31:06.204Z,9.70
2023-01-15T17:33:34.545Z,9.70
2023-01-15T17:36:02.963Z,9.70
2023-01-15T17:38:31.202Z,9.70
2023-01-15T17:41:07.018Z,9.70
2023-01-15T17:43:36.408Z,9.70
2023-01-15T17:46:06.542Z,9.70
2023-01-15T17:48:34.984Z,9.70
2023-01-15T17:51:05.230Z,9.70
2023-01-15T17:53:36.027Z,9.70
2023-01-15T17:56:21.682Z,9.70
2023-01-15T17:59:08.004Z,9.70
2023-01-15T18:01:58.969Z,9.70
2023-01-15T18:04:49.544Z,9.70
2023-01-15T18:07:22.998Z,9.80
2023-01-15T18:09:53.073Z,9.70
2023-01-15T18:12:22.352Z,9.70
2023-01-15T18:14:50.820Z,9.70
2023-01-15T18:17:20.964Z,9.70
2023-01-15T18:19:49.836Z,9.70
2023-01-15T18:22:19.100Z,10.00
2023-01-15T18:24:47.713Z,9.70
2023-01-15T18:27:15.977Z,9.70
2023-01-15T18:29:44.464Z,9.70
2023-01-15T18:32:12.788Z,9.70
2023-01-15T18:34:42.559Z,9.60
2023-01-15T18:37:13.218Z,9.60
2023-01-15T18:39:41.606Z,9.60
2023-01-15T18:42:29.336Z,9.60
2023-01-15T18:45:15.509Z,9.60
2023-01-15T18:47:44.537Z,9.60
2023-01-15T18:50:16.100Z,9.60
2023-01-15T18:52:51.384Z,9.60
2023-01-15T18:55:21.993Z,9.60
2023-01-15T18:57:50.721Z,9.60
2023-01-15T19:00:20.729Z,9.60
2023-01-15T19:02:49.457Z,9.60
2023-01-15T19:05:20.427Z,9.60
2023-01-15T19:07:49.192Z,9.70
2023-01-15T19:10:19.466Z,9.70
2023-01-15T19:12:47.859Z,9.60
2023-01-15T19:15:36.526Z,9.60
2023-01-15T19:18:23.128Z,9.70
2023-01-15T19:20:52.789Z,9.70
2023-01-15T19:23:21.988Z,9.70
2023-01-15T19:25:50.413Z,9.70
2023-01-15T19:28:21.032Z,9.70
2023-01-15T19:31:07.576Z,9.70
2023-01-15T19:33:36.543Z,9.70
2023-01-15T19:36:07.107Z,9.70
2023-01-15T19:38:37.235Z,9.70
2023-01-15T19:41:28.330Z,9.70
2023-01-15T19:44:13.946Z,9.70
2023-01-15T19:46:59.955Z,9.70
2023-01-15T19:49:54.920Z,9.70
2023-01-15T19:52:37.746Z,9.70
2023-01-15T19:55:08.331Z,9.70
2023-01-15T19:57:36.692Z,9.70
2023-01-15T20:00:06.409Z,9.70
2023-01-15T20:02:36.665Z,9.70
2023-01-15T20:05:06.505Z,9.70
2023-01-15T20:07:36.515Z,9.50
2023-01-15T20:10:05.789Z,9.70
2023-01-15T20:12:51.475Z,9.70
2023-01-15T20:15:20.331Z,9.70
2023-01-15T20:17:48.887Z,9.70
2023-01-15T20:20:18.039Z,9.70
2023-01-15T20:22:48.689Z,9.70
2023-01-15T20:25:18.129Z,9.70
2023-01-15T20:27:46.701Z,9.70
2023-01-15T20:30:21.132Z,9.70
2023-01-15T20:32:50.957Z,9.70
2023-01-15T20:35:25.247Z,9.70
2023-01-15T20:37:57.041Z,9.70
2023-01-15T20:40:28.939Z,9.70
2023-01-15T20:43:15.055Z,9.70
2023-01-15T20:45:44.235Z,9.80
2023-01-15T20:48:31.051Z,9.80
2023-01-15T20:51:03.452Z,9.80
2023-01-15T20:53:35.109Z,9.80
2023-01-15T20:56:05.372Z,9.70
2023-01-15T20:58:33.853Z,9.80
2023-01-15T21:01:06.650Z,9.80
2023-01-15T21:03:35.238Z,9.80
2023-01-15T21:06:05.092Z,9.80
2023-01-15T21:08:35.567Z,9.80
2023-01-15T21:11:04.769Z,9.80
2023-01-15T21:13:33.631Z,9.80
2023-01-15T21:16:06.985Z,9.80
2023-01-15T21:18:37.346Z,9.80
2023-01-15T21:21:10.167Z,9.80
2023-01-15T21:23:40.284Z,9.70
2023-01-15T21:26:08.906Z,9.80
2023-01-15T21:28:37.336Z,9.80
2023-01-15T21:31:08.522Z,9.90
2023-01-15T21:33:37.937Z,9.80
2023-01-15T21:36:08.137Z,9.80
2023-01-15T21:38:36.913Z,9.80
2023-01-15T21:41:11.271Z,9.80
2023-01-15T21:43:57.236Z,9.80
2023-01-15T21:46:27.693Z,9.80
2023-01-15T21:48:56.296Z,9.80
2023-01-15T21:51:24.955Z,9.70
2023-01-15T21:53:53.432Z,9.80
2023-01-15T21:56:23.157Z,9.80
2023-01-15T21:58:51.398Z,9.80
2023-01-15T22:01:20.883Z,9.80
2023-01-15T22:03:49.197Z,9.80
2023-01-15T22:06:17.704Z,9.70
2023-01-15T22:08:46.144Z,9.70
2023-01-15T22:11:14.471Z,10.10
2023-01-15T22:13:44.243Z,9.70
2023-01-15T22:16:12.527Z,9.70
2023-01-15T22:18:40.994Z,9.70
2023-01-15T22:21:15.213Z,9.70
2023-01-15T22:23:43.804Z,9.70
2023-01-15T22:26:18.532Z,9.70
2023-01-15T22:28:48.813Z,9.70
2023-01-15T22:31:17.938Z,9.70
2023-01-15T22:33:46.831Z,9.70
2023-01-15T22:36:17.042Z,9.70
2023-01-15T22:38:46.818Z,9.70
2023-01-15T22:41:15.050Z,9.70
2023-01-15T22:43:43.292Z,9.60
2023-01-15T22:46:14.980Z,9.60
2023-01-15T22:48:43.308Z,9.60
2023-01-15T22:51:11.533Z,9.60
2023-01-15T22:53:39.752Z,9.70
2023-01-15T22:56:08.569Z,9.60
2023-01-15T22:58:40.039Z,9.60
2023-01-15T23:01:08.838Z,9.70
2023-01-15T23:03:38.752Z,9.60
2023-01-15T23:06:09.576Z,9.70
2023-01-15T23:08:38.794Z,9.70
2023-01-15T23:11:10.584Z,9.60
2023-01-15T23:13:39.207Z,9.60
2023-01-15T23:16:08.196Z,9.70
2023-01-15T23:18:37.936Z,9.70
2023-01-15T23:21:07.725Z,9.60
2023-01-15T23:23:36.390Z,9.60
2023-01-15T23:26:04.885Z,9.80
2023-01-15T23:28:33.238Z,9.60
2023-01-15T23:31:01.683Z,9.60
2023-01-15T23:33:30.508Z,9.60
2023-01-15T23:36:00.229Z,9.60
2023-01-15T23:38:28.879Z,9.60
2023-01-15T23:40:57.097Z,9.60
2023-01-15T23:43:42.714Z,9.60
2023-01-15T23:46:35.937Z,9.60
2023-01-15T23:49:06.439Z,9.60
2023-01-15T23:51:36.912Z,9.60
2023-01-15T23:54:08.686Z,9.60
2023-01-15T23:56:37.167Z,9.60
2023-01-15T23:59:05.563Z,9.60
